createdAt,value
2022-11-27T00:02:40.305Z,100192.94
2022-11-27T00:05:58.772Z,100194.78
2022-11-27T00:09:16.007Z,100188.73
2022-11-27T00:12:25.888Z,100199.33
2022-11-27T00:15:37.606Z,100194.15
2022-11-27T00:18:51.033Z,100191.52
2022-11-27T00:22:02.941Z,100196.03
2022-11-27T00:25:15.912Z,100195.21
2022-11-27T00:28:27.842Z,100188.38
2022-11-27T00:31:41.441Z,100174.05
2022-11-27T00:34:53.173Z,100192.45
2022-11-27T00:38:05.025Z,100194.81
2022-11-27T00:41:20.475Z,100202.66
2022-11-27T00:44:32.194Z,100199.44
2022-11-27T00:47:43.963Z,100192.34
2022-11-27T00:50:55.648Z,100186.02
2022-11-27T00:54:08.068Z,100192.93
2022-11-27T00:57:19.785Z,100179.98
2022-11-27T01:00:31.867Z,100182.41
2022-11-27T01:03:43.600Z,100177.98
2022-11-27T01:06:55.353Z,100182.09
2022-11-27T01:10:07.463Z,100170.91
2022-11-27T01:13:19.122Z,100181.11
2022-11-27T01:16:34.447Z,100181.82
2022-11-27T01:19:46.432Z,100180.77
2022-11-27T01:22:58.003Z,100181.55
2022-11-27T01:26:12.997Z,100176.14
2022-11-27T01:29:24.658Z,100172.69
2022-11-27T01:32:36.285Z,100174.57
2022-11-27T01:35:48.129Z,100168.60
2022-11-27T01:39:00.149Z,100173.08
2022-11-27T01:42:13.193Z,100176.68
2022-11-27T01:45:26.991Z,100166.70
2022-11-27T01:48:38.906Z,100168.55
2022-11-27T01:51:55.673Z,100164.16
2022-11-27T01:55:11.835Z,100169.22
2022-11-27T01:58:28.917Z,100166.07
2022-11-27T02:01:38.883Z,100168.44
2022-11-27T02:04:50.842Z,100177.64
2022-11-27T02:08:06.918Z,100180.07
2022-11-27T02:11:23.537Z,100173.80
2022-11-27T02:14:41.872Z,100173.80
2022-11-27T02:18:00.639Z,100170.27
2022-11-27T02:21:18.421Z,100171.33
2022-11-27T02:24:53.753Z,100175.64
2022-11-27T02:28:25.975Z,100177.78
2022-11-27T02:31:44.943Z,100183.83
2022-11-27T02:35:02.970Z,100182.75
2022-11-27T02:38:19.275Z,100183.41
2022-11-27T02:41:36.164Z,100184.28
2022-11-27T02:44:53.984Z,100186.50
2022-11-27T02:48:06.601Z,100194.34
2022-11-27T02:51:21.324Z,100195.88
2022-11-27T02:54:36.091Z,100196.55
2022-11-27T02:57:49.755Z,100194.72
2022-11-27T03:01:03.436Z,100196.41
2022-11-27T03:04:20.638Z,100199.19
2022-11-27T03:07:34.537Z,100194.83
2022-11-27T03:10:52.874Z,100194.00
2022-11-27T03:14:09.296Z,100192.16
2022-11-27T03:17:34.666Z,100201.89
2022-11-27T03:20:49.651Z,100201.70
2022-11-27T03:24:01.611Z,100213.00
2022-11-27T03:27:14.860Z,100207.48
2022-11-27T03:30:26.586Z,100212.59
2022-11-27T03:33:38.988Z,100210.82
2022-11-27T03:36:51.019Z,100213.71
2022-11-27T03:40:03.288Z,100211.41
2022-11-27T03:43:21.305Z,100209.69
2022-11-27T03:46:40.018Z,100215.66
2022-11-27T03:50:04.892Z,100211.98
2022-11-27T03:53:23.473Z,100211.08
2022-11-27T03:56:41.027Z,100210.11
2022-11-27T03:59:55.616Z,100210.14
2022-11-27T04:03:08.566Z,100215.29
2022-11-27T04:06:20.366Z,100206.88
2022-11-27T04:09:32.178Z,100216.93
2022-11-27T04:12:46.307Z,100216.25
2022-11-27T04:15:58.138Z,100214.23
2022-11-27T04:19:10.025Z,100215.39
2022-11-27T04:22:21.911Z,100209.67
2022-11-27T04:25:34.261Z,100204.64
2022-11-27T04:28:46.159Z,100216.22
2022-11-27T04:31:57.758Z,100219.89
2022-11-27T04:35:10.122Z,100217.27
2022-11-27T04:38:22.362Z,100221.22
2022-11-27T04:41:33.994Z,100221.77
2022-11-27T04:44:45.616Z,100224.39
2022-11-27T04:47:57.224Z,100214.20
2022-11-27T04:51:09.100Z,100220.06
2022-11-27T04:54:21.007Z,100217.55
2022-11-27T04:57:32.860Z,100209.02
2022-11-27T05:00:44.494Z,100198.77
2022-11-27T05:03:56.362Z,100210.17
2022-11-27T05:07:08.048Z,100201.25
2022-11-27T05:10:19.975Z,100205.46
2022-11-27T05:13:31.624Z,100206.22
2022-11-27T05:16:43.354Z,100200.89
2022-11-27T05:19:54.970Z,100210.86
2022-11-27T05:23:06.660Z,100208.84
2022-11-27T05:26:18.326Z,100217.44
2022-11-27T05:29:30.687Z,100207.72
2022-11-27T05:32:42.712Z,100204.84
2022-11-27T05:35:54.338Z,100209.42
2022-11-27T05:39:08.022Z,100214.13
2022-11-27T05:42:19.955Z,100215.97
2022-11-27T05:45:31.599Z,100218.27
2022-11-27T05:48:43.293Z,100233.92
2022-11-27T05:51:55.057Z,100230.32
2022-11-27T05:55:06.855Z,100236.98
2022-11-27T05:58:18.866Z,100235.03
2022-11-27T06:01:30.940Z,100230.58
2022-11-27T06:04:43.128Z,100228.73
2022-11-27T06:07:54.883Z,100222.37
2022-11-27T06:11:12.693Z,100214.41
2022-11-27T06:14:24.428Z,100210.35
2022-11-27T06:17:36.335Z,100204.16
2022-11-27T06:20:52.777Z,100213.88
2022-11-27T06:24:03.186Z,100213.55
2022-11-27T06:27:15.013Z,100223.02
2022-11-27T06:30:27.272Z,100217.72
2022-11-27T06:33:39.008Z,100230.86
2022-11-27T06:36:51.346Z,100222.30
2022-11-27T06:40:03.320Z,100223.23
2022-11-27T06:43:15.422Z,100221.44
2022-11-27T06:46:30.077Z,100220.61
2022-11-27T06:49:42.210Z,100213.55
2022-11-27T06:52:54.079Z,100220.53
2022-11-27T06:56:08.854Z,100220.61
2022-11-27T06:59:20.794Z,100207.66
2022-11-27T07:02:32.530Z,100213.30
2022-11-27T07:05:44.931Z,100210.93
2022-11-27T07:08:57.827Z,100210.00
2022-11-27T07:12:12.304Z,100208.16
2022-11-27T07:15:24.100Z,100202.30
2022-11-27T07:18:38.187Z,100199.49
2022-11-27T07:21:49.995Z,100206.94
2022-11-27T07:25:01.695Z,100213.80
2022-11-27T07:28:18.626Z,100208.26
2022-11-27T07:31:31.811Z,100210.55
2022-11-27T07:34:43.649Z,100209.44
2022-11-27T07:37:55.742Z,100211.16
2022-11-27T07:41:09.724Z,100211.88
2022-11-27T07:44:22.160Z,100213.30
2022-11-27T07:47:35.090Z,100208.05
2022-11-27T07:50:48.081Z,100198.84
2022-11-27T07:53:59.840Z,100205.41
2022-11-27T07:57:11.811Z,100205.56
2022-11-27T08:00:26.300Z,100213.37
2022-11-27T08:03:38.190Z,100212.92
2022-11-27T08:06:50.036Z,100214.28
2022-11-27T08:10:02.374Z,100219.68
2022-11-27T08:13:15.209Z,100226.78
2022-11-27T08:16:27.061Z,100221.92
2022-11-27T08:19:38.785Z,100215.66
2022-11-27T08:22:50.546Z,100220.55
2022-11-27T08:26:03.073Z,100221.11
2022-11-27T08:29:19.492Z,100218.44
2022-11-27T08:32:31.352Z,100212.59
2022-11-27T08:35:43.688Z,100208.20
2022-11-27T08:38:55.604Z,100216.00
2022-11-27T08:42:07.792Z,100211.61
2022-11-27T08:45:20.120Z,100210.94
2022-11-27T08:48:33.684Z,100207.59
2022-11-27T08:51:45.754Z,100212.84
2022-11-27T08:54:58.640Z,100208.31
2022-11-27T08:58:12.041Z,100195.39
2022-11-27T09:01:26.846Z,100207.59
2022-11-27T09:04:39.114Z,100205.64
2022-11-27T09:07:52.376Z,100214.16
2022-11-27T09:11:08.869Z,100215.86
2022-11-27T09:14:21.362Z,100207.93
2022-11-27T09:17:36.010Z,100211.13
2022-11-27T09:20:50.443Z,100208.45
2022-11-27T09:24:04.975Z,100213.48
2022-11-27T09:27:17.381Z,100211.97
2022-11-27T09:30:29.798Z,100208.48
2022-11-27T09:33:44.896Z,100206.55
2022-11-27T09:36:57.064Z,100213.66
2022-11-27T09:40:11.200Z,100206.91
2022-11-27T09:43:27.571Z,100206.53
2022-11-27T09:46:44.862Z,100208.23
2022-11-27T09:50:01.731Z,100211.87
2022-11-27T09:53:21.567Z,100211.80
2022-11-27T09:56:35.747Z,100206.12
2022-11-27T09:59:53.528Z,100206.00
2022-11-27T10:03:07.431Z,100201.38
2022-11-27T10:06:29.893Z,100195.05
2022-11-27T10:09:54.372Z,100189.95
2022-11-27T10:13:11.767Z,100188.11
2022-11-27T10:16:30.681Z,100177.44
2022-11-27T10:19:51.677Z,100178.88
2022-11-27T10:23:09.535Z,100184.97
2022-11-27T10:26:28.282Z,100180.50
2022-11-27T10:29:50.243Z,100178.45
2022-11-27T10:33:06.087Z,100169.48
2022-11-27T10:36:25.415Z,100175.61
2022-11-27T10:39:42.019Z,100173.97
2022-11-27T10:43:02.259Z,100169.77
2022-11-27T10:46:20.283Z,100167.42
2022-11-27T10:49:32.434Z,100155.84
2022-11-27T10:52:54.221Z,100161.76
2022-11-27T10:56:54.960Z,100162.09
2022-11-27T11:00:17.601Z,100150.84
2022-11-27T11:03:30.248Z,100151.13
2022-11-27T11:06:47.529Z,100146.03
2022-11-27T11:10:00.031Z,100146.03
2022-11-27T11:13:27.369Z,100148.66
2022-11-27T11:16:42.559Z,100143.47
2022-11-27T11:19:55.299Z,100138.63
2022-11-27T11:23:07.404Z,100128.34
2022-11-27T11:26:29.919Z,100127.11
2022-11-27T11:29:46.414Z,100130.37
2022-11-27T11:33:05.896Z,100124.81
2022-11-27T11:36:19.206Z,100128.02
2022-11-27T11:39:33.867Z,100129.50
2022-11-27T11:42:59.189Z,100125.39
2022-11-27T11:46:24.926Z,100124.23
2022-11-27T11:49:38.890Z,100117.20
2022-11-27T11:52:58.910Z,100115.55
2022-11-27T11:56:24.014Z,100112.02
2022-11-27T11:59:45.159Z,100120.82
2022-11-27T12:03:12.107Z,100106.20
2022-11-27T12:06:48.319Z,100087.69
2022-11-27T12:10:06.369Z,100099.64
2022-11-27T12:13:33.007Z,100103.66
2022-11-27T12:16:55.881Z,100107.16
2022-11-27T12:20:31.708Z,100108.23
2022-11-27T12:24:00.690Z,100102.75
2022-11-27T12:27:23.347Z,100107.72
2022-11-27T12:30:42.195Z,100092.27
2022-11-27T12:34:05.782Z,100091.66
2022-11-27T12:37:32.590Z,100094.08
2022-11-27T12:40:57.559Z,100090.42
2022-11-27T12:44:14.483Z,100097.48
2022-11-27T12:47:38.981Z,100093.13
2022-11-27T12:50:55.578Z,100088.11
2022-11-27T12:54:15.142Z,100092.05
2022-11-27T12:57:37.016Z,100096.84
2022-11-27T13:00:54.673Z,100090.67
2022-11-27T13:04:24.016Z,100083.84
2022-11-27T13:07:43.471Z,100078.72
2022-11-27T13:11:01.232Z,100080.44
2022-11-27T13:14:17.250Z,100076.48
2022-11-27T13:17:31.738Z,100078.12
2022-11-27T13:20:51.895Z,100068.83
2022-11-27T13:24:05.574Z,100069.91
2022-11-27T13:27:18.412Z,100071.47
2022-11-27T13:30:34.630Z,100075.95
2022-11-27T13:33:50.635Z,100070.13
2022-11-27T13:37:07.587Z,100073.45
2022-11-27T13:40:25.329Z,100070.82
2022-11-27T13:43:46.818Z,100066.23
2022-11-27T13:47:02.483Z,100071.58
2022-11-27T13:50:17.362Z,100082.88
2022-11-27T13:53:41.758Z,100067.95
2022-11-27T13:56:54.338Z,100070.34
2022-11-27T14:00:09.876Z,100074.05
2022-11-27T14:03:34.933Z,100065.16
2022-11-27T14:06:51.083Z,100058.26
2022-11-27T14:10:07.488Z,100061.66
2022-11-27T14:13:24.763Z,100058.42
2022-11-27T14:16:39.010Z,100058.63
2022-11-27T14:19:56.465Z,100069.23
2022-11-27T14:23:12.758Z,100065.98
2022-11-27T14:26:31.569Z,100072.24
2022-11-27T14:29:43.947Z,100065.50
2022-11-27T14:32:56.982Z,100073.39
2022-11-27T14:36:11.819Z,100067.97
2022-11-27T14:39:34.572Z,100063.94
2022-11-27T14:42:46.550Z,100067.41
2022-11-27T14:46:03.224Z,100065.63
2022-11-27T14:49:25.016Z,100065.02
2022-11-27T14:52:39.182Z,100051.38
2022-11-27T14:55:53.978Z,100059.75
2022-11-27T14:59:08.291Z,100058.44
2022-11-27T15:02:29.131Z,100043.89
2022-11-27T15:05:43.405Z,100050.80
2022-11-27T15:09:23.669Z,100046.73
2022-11-27T15:12:19.314Z,100037.16
2022-11-27T15:15:34.796Z,100040.56
2022-11-27T15:18:51.116Z,100040.56
2022-11-27T15:22:03.716Z,100038.14
2022-11-27T15:25:42.806Z,100039.99
2022-11-27T15:29:01.247Z,100038.14
2022-11-27T15:32:24.707Z,100036.50
2022-11-27T15:35:38.480Z,100034.32
2022-11-27T15:38:51.384Z,100040.56
2022-11-27T15:42:06.160Z,100041.30
2022-11-27T15:45:19.200Z,100039.65
2022-11-27T15:48:31.595Z,100040.79
2022-11-27T15:51:44.264Z,100047.38
2022-11-27T15:54:57.370Z,100043.46
2022-11-27T15:58:09.876Z,100043.46
2022-11-27T16:01:22.934Z,100040.83
2022-11-27T16:04:35.647Z,100032.83
2022-11-27T16:07:52.300Z,100043.97
2022-11-27T16:11:07.971Z,100042.55
2022-11-27T16:14:20.405Z,100046.09
2022-11-27T16:17:32.503Z,100034.52
2022-11-27T16:20:44.870Z,100034.59
2022-11-27T16:23:58.926Z,100034.83
2022-11-27T16:27:11.132Z,100032.20
2022-11-27T16:30:23.794Z,100030.64
2022-11-27T16:33:37.853Z,100025.50
2022-11-27T16:36:50.521Z,100030.56
2022-11-27T16:40:02.716Z,100025.06
2022-11-27T16:43:15.580Z,100013.57
2022-11-27T16:46:31.448Z,100013.57
2022-11-27T16:49:43.835Z,100013.81
2022-11-27T16:52:59.725Z,100019.39
2022-11-27T16:56:19.441Z,100009.90
2022-11-27T16:59:31.595Z,100012.24
2022-11-27T17:02:44.177Z,100007.89
2022-11-27T17:05:56.914Z,100011.46
2022-11-27T17:09:11.808Z,100013.15
2022-11-27T17:12:23.590Z,100006.20
2022-11-27T17:15:40.349Z,100007.19
2022-11-27T17:18:50.839Z,100004.56
2022-11-27T17:22:03.572Z,100002.06
2022-11-27T17:25:17.599Z,100000.95
2022-11-27T17:28:30.003Z,100001.08
2022-11-27T17:31:42.553Z,99999.39
2022-11-27T17:34:57.541Z,99992.29
2022-11-27T17:38:10.203Z,99987.81
2022-11-27T17:41:22.666Z,99988.72
2022-11-27T17:44:35.591Z,99987.73
2022-11-27T17:47:47.877Z,99979.27
2022-11-27T17:51:00.856Z,99983.32
2022-11-27T17:54:14.383Z,99979.05
2022-11-27T17:57:26.355Z,99980.19
2022-11-27T18:00:40.474Z,99978.63
2022-11-27T18:03:53.227Z,99969.26
2022-11-27T18:07:05.381Z,99953.42
2022-11-27T18:10:18.510Z,99959.18
2022-11-27T18:13:32.611Z,99960.75
2022-11-27T18:16:45.384Z,99954.63
2022-11-27T18:19:59.587Z,99952.79
2022-11-27T18:23:12.042Z,99951.22
2022-11-27T18:26:45.344Z,99953.14
2022-11-27T18:29:41.751Z,99936.41
2022-11-27T18:32:54.086Z,99936.77
2022-11-27T18:36:06.467Z,99928.65
2022-11-27T18:39:18.637Z,99934.48
2022-11-27T18:42:32.560Z,99931.85
2022-11-27T18:45:44.905Z,99919.94
2022-11-27T18:48:58.813Z,99927.36
2022-11-27T18:52:13.882Z,99922.39
2022-11-27T18:55:26.077Z,99920.55
2022-11-27T18:58:39.677Z,99913.53
2022-11-27T19:01:51.950Z,99915.17
2022-11-27T19:05:04.093Z,99923.95
2022-11-27T19:08:16.627Z,99921.83
2022-11-27T19:11:31.085Z,99924.95
2022-11-27T19:14:43.324Z,99933.62
2022-11-27T19:17:55.695Z,99937.31
2022-11-27T19:21:09.929Z,99946.13
2022-11-27T19:24:22.251Z,99937.47
2022-11-27T19:27:36.149Z,99938.33
2022-11-27T19:30:49.547Z,99940.22
2022-11-27T19:34:04.642Z,99930.77
2022-11-27T19:37:28.888Z,99936.02
2022-11-27T19:40:37.197Z,99934.06
2022-11-27T19:43:49.969Z,99929.00
2022-11-27T19:47:03.301Z,99917.38
2022-11-27T19:50:18.101Z,99919.48
2022-11-27T19:53:30.139Z,99918.58
2022-11-27T19:56:43.924Z,99916.81
2022-11-27T19:59:57.097Z,99908.86
2022-11-27T20:03:09.665Z,99911.06
2022-11-27T20:06:24.389Z,99910.20
2022-11-27T20:09:37.076Z,99908.64
2022-11-27T20:12:49.186Z,99911.19
2022-11-27T20:16:01.435Z,99908.64
2022-11-27T20:19:14.294Z,99901.67
2022-11-27T20:22:26.538Z,99898.27
2022-11-27T20:25:38.362Z,99895.63
2022-11-27T20:28:50.754Z,99886.07
2022-11-27T20:32:03.738Z,99884.16
2022-11-27T20:35:16.844Z,99878.83
2022-11-27T20:38:30.306Z,99869.26
2022-11-27T20:41:43.472Z,99877.91
2022-11-27T20:44:56.268Z,99872.01
2022-11-27T20:48:08.313Z,99876.36
2022-11-27T20:51:22.524Z,99870.45
2022-11-27T20:54:34.683Z,99876.01
2022-11-27T20:57:48.055Z,99864.06
2022-11-27T21:01:02.694Z,99866.57
2022-11-27T21:04:26.115Z,99869.20
2022-11-27T21:07:41.878Z,99862.23
2022-11-27T21:10:54.520Z,99859.52
2022-11-27T21:14:12.366Z,99870.88
2022-11-27T21:17:26.026Z,99876.28
2022-11-27T21:20:38.627Z,99874.84
2022-11-27T21:23:51.199Z,99862.50
2022-11-27T21:27:04.265Z,99860.81
2022-11-27T21:30:19.340Z,99858.98
2022-11-27T21:33:31.936Z,99862.30
2022-11-27T21:36:45.861Z,99862.23
2022-11-27T21:39:58.459Z,99860.38
2022-11-27T21:43:10.364Z,99865.63
2022-11-27T21:46:25.029Z,99859.80
2022-11-27T21:49:36.934Z,99854.70
2022-11-27T21:52:49.138Z,99863.48
2022-11-27T21:56:01.232Z,99851.30
2022-11-27T21:59:16.488Z,99854.91
2022-11-27T22:02:28.296Z,99852.28
2022-11-27T22:05:40.706Z,99850.32
2022-11-27T22:08:55.054Z,99843.23
2022-11-27T22:12:07.003Z,99838.38
2022-11-27T22:15:19.276Z,99839.31
2022-11-27T22:18:31.247Z,99830.86
2022-11-27T22:21:43.233Z,99830.70
2022-11-27T22:24:54.992Z,99833.99
2022-11-27T22:28:06.839Z,99826.25
2022-11-27T22:31:21.436Z,99828.87
2022-11-27T22:34:34.016Z,99830.00
2022-11-27T22:37:46.074Z,99821.63
2022-11-27T22:41:03.319Z,99816.38
2022-11-27T22:44:20.994Z,99804.33
2022-11-27T22:47:34.309Z,99803.34
2022-11-27T22:50:46.352Z,99805.89
2022-11-27T22:53:58.305Z,99805.61
2022-11-27T22:57:11.076Z,99796.84
2022-11-27T23:00:24.531Z,99805.33
2022-11-27T23:03:38.834Z,99800.94
2022-11-27T23:06:52.064Z,99787.75
2022-11-27T23:10:04.314Z,99777.41
2022-11-27T23:13:16.231Z,99772.94
2022-11-27T23:16:29.382Z,99766.91
2022-11-27T23:19:41.132Z,99765.07
2022-11-27T23:22:53.044Z,99761.02
2022-11-27T23:26:27.021Z,99751.86
2022-11-27T23:29:38.754Z,99772.02
2022-11-27T23:32:50.639Z,99770.50
2022-11-27T23:36:08.084Z,99763.69
2022-11-27T23:39:21.015Z,99758.17
2022-11-27T23:42:32.818Z,99754.64
2022-11-27T23:45:46.677Z,99757.97
2022-11-27T23:48:59.440Z,99764.94
2022-11-27T23:52:16.840Z,99761.81
2022-11-27T23:55:25.691Z,99752.22
2022-11-27T23:58:39.327Z,99747.84
